Time;durP1;ratioP1;P1;durP2;ratioP2;P2;SDS_P1;SDS_P2;PMS_P1;PMS_P2;Temp;Humidity;BMP_temperature;BMP_pressure;BME280_temperature;BME280_humidity;BME280_pressure;Samples;Min_cycle;Max_cycle;Signal;HPM_P1;HPM_P2
2022/10/30 00:01:57;;;;;;;23.48;13.18;;;14.50;99.90;;;;;;4966884;28;20056;-75
2022/10/30 00:04:23;;;;;;;23.05;13.10;;;14.40;99.90;;;;;;4967579;28;20662;-72
2022/10/30 00:06:48;;;;;;;27.17;13.82;;;14.50;99.90;;;;;;4968557;28;20353;-74
2022/10/30 00:09:14;;;;;;;27.02;12.88;;;14.20;99.90;;;;;;4967056;28;20054;-73
2022/10/30 00:11:40;;;;;;;18.92;11.38;;;14.80;99.90;;;;;;4966772;28;20730;-74
2022/10/30 00:14:06;;;;;;;25.17;12.25;;;14.80;99.90;;;;;;4965977;28;20060;-76
2022/10/30 00:16:32;;;;;;;25.98;12.60;;;14.30;99.90;;;;;;4965378;28;20078;-74
2022/10/30 00:18:58;;;;;;;20.95;11.20;;;14.80;99.90;;;;;;4966498;28;20469;-73
2022/10/30 00:21:23;;;;;;;23.70;11.60;;;14.90;99.90;;;;;;4965649;28;20512;-76
2022/10/30 00:23:51;;;;;;;21.98;11.07;;;14.80;99.90;;;;;;4965919;28;20049;-78
2022/10/30 00:26:19;;;;;;;24.67;11.35;;;14.80;99.90;;;;;;4964695;28;20062;-74
2022/10/30 00:28:52;;;;;;;26.25;11.88;;;14.50;99.90;;;;;;4965068;28;20100;-74
2022/10/30 00:31:19;;;;;;;23.70;11.90;;;15.00;99.90;;;;;;4964424;28;20533;-74
2022/10/30 00:33:49;;;;;;;21.02;11.00;;;14.40;99.90;;;;;;4965733;28;20045;-74
2022/10/30 00:36:15;;;;;;;22.75;12.88;;;14.70;99.90;;;;;;4966372;28;20048;-74
2022/10/30 00:38:41;;;;;;;22.95;11.52;;;14.30;99.90;;;;;;4964847;28;20697;-73
2022/10/30 00:41:06;;;;;;;22.33;11.85;;;14.60;99.90;;;;;;4964605;28;20034;-74
2022/10/30 00:43:36;;;;;;;18.27;10.82;;;14.40;99.90;;;;;;4965938;28;20578;-74
2022/10/30 00:46:20;;;;;;;20.75;11.75;;;14.70;99.90;;;;;;4955499;28;20054;-75
2022/10/30 00:48:55;;;;;;;21.10;11.52;;;14.90;99.90;;;;;;4966165;28;20249;-73
2022/10/30 00:51:21;;;;;;;21.65;12.18;;;14.30;99.90;;;;;;4973022;28;20056;-72
2022/10/30 00:53:47;;;;;;;28.90;13.70;;;14.10;99.90;;;;;;4972305;28;20088;-74
2022/10/30 00:56:16;;;;;;;23.35;12.13;;;14.40;99.90;;;;;;4970831;28;20157;-74
2022/10/30 00:58:49;;;;;;;22.38;11.80;;;14.70;99.90;;;;;;4972227;28;20045;-74
2022/10/30 01:01:19;;;;;;;21.80;12.27;;;14.50;99.90;;;;;;4957584;28;20077;-75
2022/10/30 01:03:48;;;;;;;19.27;11.20;;;14.10;99.90;;;;;;4972102;28;20046;-75
2022/10/30 01:06:14;;;;;;;24.90;12.40;;;14.70;99.90;;;;;;4970709;28;20050;-74
2022/10/30 01:08:40;;;;;;;22.35;12.52;;;14.40;99.90;;;;;;4972297;28;20050;-75
2022/10/30 01:11:08;;;;;;;20.55;11.68;;;14.00;99.90;;;;;;4971128;28;20359;-73
2022/10/30 01:13:35;;;;;;;20.38;11.80;;;14.50;99.90;;;;;;4971510;28;20418;-73
2022/10/30 01:16:20;;;;;;;22.73;11.82;;;14.60;99.90;;;;;;4974475;28;20050;-74
2022/10/30 01:19:06;;;;;;;26.77;12.52;;;14.60;99.90;;;;;;4972568;28;20096;-72
2022/10/30 01:21:46;;;;;;;25.83;12.50;;;14.30;99.90;;;;;;4973603;28;20054;-73
2022/10/30 01:24:37;;;;;;;24.05;12.05;;;13.90;99.90;;;;;;4972018;28;20142;-74
2022/10/30 01:27:29;;;;;;;21.35;12.05;;;14.20;99.90;;;;;;4972273;28;20109;-75
2022/10/30 01:30:24;;;;;;;23.17;13.07;;;14.20;99.90;;;;;;4972515;28;20508;-76
2022/10/30 01:32:59;;;;;;;23.67;12.70;;;13.90;99.90;;;;;;4970835;28;20057;-72
2022/10/30 01:35:47;;;;;;;28.83;12.70;;;14.20;99.90;;;;;;4970973;28;20046;-74
2022/10/30 01:38:19;;;;;;;22.45;12.63;;;13.80;99.90;;;;;;4950554;28;20057;-76
2022/10/30 01:40:45;;;;;;;26.95;12.93;;;13.70;99.90;;;;;;4972631;28;20046;-74
2022/10/30 01:43:11;;;;;;;26.63;12.43;;;13.80;99.90;;;;;;4972150;28;20624;-73
2022/10/30 01:46:14;;;;;;;25.45;13.13;;;14.00;99.90;;;;;;4970826;28;20050;-73
2022/10/30 01:48:52;;;;;;;23.35;12.77;;;13.70;99.90;;;;;;4971085;28;20050;-73
2022/10/30 01:51:36;;;;;;;21.45;12.57;;;14.20;99.90;;;;;;4971331;28;20038;-74
2022/10/30 01:54:43;;;;;;;26.08;12.30;;;13.70;99.90;;;;;;4972545;28;20129;-76
2022/10/30 01:57:34;;;;;;;25.67;12.63;;;13.90;99.90;;;;;;4965010;28;20065;-73
2022/10/30 02:00:08;;;;;;;25.13;13.20;;;14.30;99.90;;;;;;4972108;28;20858;-73
2022/10/30 02:02:34;;;;;;;26.88;13.25;;;14.20;99.90;;;;;;4968485;28;20078;-75
2022/10/30 02:05:00;;;;;;;22.80;13.15;;;13.60;99.90;;;;;;4968579;28;20165;-73
2022/10/30 02:07:26;;;;;;;26.98;12.70;;;13.90;99.90;;;;;;4969307;28;20046;-75
2022/10/30 02:09:53;;;;;;;21.10;12.77;;;13.70;99.90;;;;;;4968930;28;20512;-74
2022/10/30 02:12:21;;;;;;;22.92;12.90;;;14.20;99.90;;;;;;4967704;28;20057;-73
2022/10/30 02:14:53;;;;;;;23.17;12.07;;;13.80;99.90;;;;;;4968904;28;20039;-74
2022/10/30 02:17:19;;;;;;;25.52;13.43;;;13.60;99.90;;;;;;4967680;28;20054;-74
2022/10/30 02:19:45;;;;;;;22.13;12.10;;;14.10;99.90;;;;;;4968657;28;20050;-73
2022/10/30 02:22:11;;;;;;;24.02;12.13;;;13.50;99.90;;;;;;4951582;28;20059;-73
2022/10/30 02:24:36;;;;;;;20.83;12.50;;;14.20;99.90;;;;;;4968474;28;20058;-73
2022/10/30 02:27:02;;;;;;;24.80;12.85;;;13.60;99.90;;;;;;4966692;28;20140;-73
2022/10/30 02:29:28;;;;;;;26.08;12.88;;;13.50;99.90;;;;;;4950372;28;20068;-72
2022/10/30 02:31:54;;;;;;;24.95;12.15;;;14.10;99.90;;;;;;4951940;28;20160;-73
2022/10/30 02:34:20;;;;;;;24.25;12.75;;;13.80;99.90;;;;;;4967248;28;20688;-74
2022/10/30 02:36:45;;;;;;;22.00;12.77;;;14.10;99.90;;;;;;4968361;28;20573;-74
2022/10/30 02:39:11;;;;;;;21.15;12.40;;;14.20;99.90;;;;;;4969012;28;20046;-73
2022/10/30 02:41:37;;;;;;;22.55;12.10;;;13.70;99.90;;;;;;4951035;28;20410;-73
2022/10/30 02:44:05;;;;;;;23.08;12.48;;;13.70;99.90;;;;;;4969036;28;20046;-73
2022/10/30 02:46:31;;;;;;;23.50;13.20;;;14.00;99.90;;;;;;4968048;28;20050;-73
2022/10/30 02:48:57;;;;;;;27.23;12.35;;;13.70;99.90;;;;;;4966871;28;20580;-75
2022/10/30 02:51:22;;;;;;;23.60;12.30;;;13.60;99.90;;;;;;4967548;28;20042;-75
2022/10/30 02:53:48;;;;;;;24.45;12.40;;;13.70;99.90;;;;;;4970813;28;20504;-72
2022/10/30 02:56:14;;;;;;;26.40;12.88;;;14.00;99.90;;;;;;4969803;28;20050;-73
2022/10/30 02:58:40;;;;;;;19.25;12.13;;;13.80;99.90;;;;;;4968977;28;20038;-75
2022/10/30 03:01:15;;;;;;;26.08;12.80;;;13.70;99.90;;;;;;4951005;28;20046;-75
2022/10/30 03:03:41;;;;;;;23.90;12.82;;;13.60;99.90;;;;;;4966581;28;20113;-75
2022/10/30 03:06:09;;;;;;;21.45;12.98;;;14.10;99.90;;;;;;4967687;28;20129;-74
2022/10/30 03:08:35;;;;;;;19.27;12.45;;;13.70;99.90;;;;;;4965811;28;20593;-73
2022/10/30 03:11:16;;;;;;;23.50;13.00;;;13.40;99.90;;;;;;4966427;28;21132;-73
2022/10/30 03:13:43;;;;;;;21.98;13.40;;;13.50;99.90;;;;;;4967588;28;20066;-72
2022/10/30 03:16:13;;;;;;;23.60;12.95;;;14.00;99.90;;;;;;4965792;28;20042;-73
2022/10/30 03:18:39;;;;;;;23.95;12.82;;;13.80;99.90;;;;;;4967628;28;20058;-73
2022/10/30 03:21:07;;;;;;;27.40;12.95;;;13.90;99.90;;;;;;4966237;28;20121;-72
2022/10/30 03:23:33;;;;;;;22.50;12.02;;;13.90;99.90;;;;;;4966146;28;20090;-75
2022/10/30 03:25:59;;;;;;;25.88;13.25;;;13.50;99.90;;;;;;4966534;28;20099;-73
2022/10/30 03:28:30;;;;;;;26.20;12.80;;;13.90;99.90;;;;;;4966668;28;20055;-73
2022/10/30 03:31:08;;;;;;;21.60;12.70;;;13.70;99.90;;;;;;4968559;28;20674;-73
2022/10/30 03:33:35;;;;;;;21.75;12.95;;;13.60;99.90;;;;;;4968488;28;20053;-74
2022/10/30 03:36:01;;;;;;;27.35;13.60;;;13.30;99.90;;;;;;4969171;28;20084;-73
2022/10/30 03:38:27;;;;;;;25.48;13.75;;;13.80;99.90;;;;;;4967776;28;20061;-75
2022/10/30 03:40:53;;;;;;;25.98;13.65;;;13.50;99.90;;;;;;4969186;28;20050;-73
2022/10/30 03:43:19;;;;;;;26.38;13.85;;;13.30;99.90;;;;;;4969886;28;20683;-76
2022/10/30 03:45:47;;;;;;;18.65;13.07;;;13.60;99.90;;;;;;4968953;28;20329;-76
2022/10/30 03:48:13;;;;;;;27.48;13.80;;;13.00;99.90;;;;;;4968066;28;20627;-73
2022/10/30 03:50:39;;;;;;;21.92;13.75;;;13.00;99.90;;;;;;4969707;28;20149;-73
2022/10/30 03:53:04;;;;;;;25.63;14.40;;;13.60;99.90;;;;;;4969154;28;20160;-75
2022/10/30 03:55:30;;;;;;;26.73;14.60;;;13.40;99.90;;;;;;4966732;28;20069;-74
2022/10/30 03:57:55;;;;;;;29.75;14.45;;;13.60;99.90;;;;;;4965001;28;20050;-73
2022/10/30 04:00:21;;;;;;;25.33;14.50;;;13.10;99.90;;;;;;4966420;28;20077;-72
2022/10/30 04:02:48;;;;;;;29.23;14.75;;;13.50;99.90;;;;;;4966811;28;20217;-75
2022/10/30 04:05:16;;;;;;;26.30;14.40;;;12.80;99.90;;;;;;4966648;28;20042;-76
2022/10/30 04:07:42;;;;;;;29.15;14.77;;;13.50;99.90;;;;;;4952165;28;20145;-72
2022/10/30 04:10:08;;;;;;;30.42;15.32;;;13.40;99.90;;;;;;4968782;28;20552;-74
2022/10/30 04:12:34;;;;;;;29.50;15.52;;;13.40;99.90;;;;;;4968748;28;20121;-76
2022/10/30 04:15:00;;;;;;;25.10;15.40;;;13.10;99.90;;;;;;4968193;28;20054;-74
2022/10/30 04:17:25;;;;;;;25.58;15.30;;;12.80;99.90;;;;;;4949012;28;20137;-77
2022/10/30 04:19:51;;;;;;;23.45;15.85;;;13.30;99.90;;;;;;4966670;28;20076;-77
2022/10/30 04:22:17;;;;;;;32.40;16.58;;;12.60;99.90;;;;;;4965593;28;20096;-74
2022/10/30 04:24:43;;;;;;;26.48;16.38;;;13.00;99.90;;;;;;4964382;28;20633;-73
2022/10/30 04:27:09;;;;;;;30.15;16.00;;;12.50;99.90;;;;;;4949356;28;20047;-73
2022/10/30 04:29:36;;;;;;;25.95;14.90;;;13.10;99.90;;;;;;4966627;28;20065;-77
2022/10/30 04:32:02;;;;;;;30.42;16.08;;;12.60;99.90;;;;;;4965079;28;20523;-72
2022/10/30 04:34:27;;;;;;;28.27;15.70;;;13.10;99.90;;;;;;4965477;28;20062;-73
2022/10/30 04:36:54;;;;;;;27.50;16.60;;;13.10;99.90;;;;;;4931890;28;20049;-73
2022/10/30 04:39:20;;;;;;;29.10;16.70;;;13.10;99.90;;;;;;4965355;28;20572;-73
2022/10/30 04:41:45;;;;;;;30.13;17.23;;;12.50;99.90;;;;;;4966397;28;20081;-73
2022/10/30 04:44:11;;;;;;;27.55;16.80;;;13.00;99.90;;;;;;4965076;28;20965;-74
2022/10/30 04:46:37;;;;;;;32.25;18.60;;;13.10;99.90;;;;;;4965648;28;20089;-76
2022/10/30 04:49:02;;;;;;;31.17;16.77;;;12.80;99.90;;;;;;4966269;28;20080;-75
2022/10/30 04:51:28;;;;;;;27.13;17.60;;;13.10;99.90;;;;;;4948289;28;20077;-75
2022/10/30 04:53:54;;;;;;;26.80;16.70;;;12.70;99.90;;;;;;4964223;28;20050;-77
2022/10/30 04:56:20;;;;;;;31.85;17.38;;;12.30;99.90;;;;;;4966117;28;20053;-73
2022/10/30 04:58:45;;;;;;;30.90;17.02;;;12.40;99.90;;;;;;4965467;28;20498;-73
2022/10/30 05:01:11;;;;;;;29.60;17.63;;;13.00;99.90;;;;;;4949029;28;20035;-76
2022/10/30 05:03:37;;;;;;;31.30;18.42;;;12.80;99.90;;;;;;4965274;28;20685;-74
2022/10/30 05:06:15;;;;;;;32.58;18.10;;;12.50;99.90;;;;;;4965528;28;20329;-73
2022/10/30 05:08:40;;;;;;;25.50;17.65;;;12.30;99.90;;;;;;4966713;28;20054;-75
2022/10/30 05:11:06;;;;;;;31.48;18.40;;;12.80;99.90;;;;;;4965885;28;20098;-73
2022/10/30 05:13:32;;;;;;;37.33;19.60;;;12.20;99.90;;;;;;4963478;28;20516;-74
2022/10/30 05:15:57;;;;;;;26.98;17.33;;;12.80;99.90;;;;;;4964338;28;20034;-73
2022/10/30 05:18:23;;;;;;;32.17;17.95;;;12.30;99.90;;;;;;4946130;28;20103;-73
2022/10/30 05:20:49;;;;;;;28.92;18.55;;;12.20;99.90;;;;;;4965295;28;20736;-74
2022/10/30 05:23:14;;;;;;;29.45;18.48;;;12.10;99.90;;;;;;4948330;28;20050;-74
2022/10/30 05:25:40;;;;;;;26.90;17.63;;;12.70;99.90;;;;;;4964682;28;20519;-75
2022/10/30 05:28:06;;;;;;;27.00;18.80;;;12.10;99.90;;;;;;4948332;28;20050;-73
2022/10/30 05:30:33;;;;;;;31.42;18.60;;;13.00;99.90;;;;;;4964041;28;20054;-77
2022/10/30 05:33:04;;;;;;;32.05;18.98;;;12.60;99.90;;;;;;4965903;28;20751;-73
2022/10/30 05:35:34;;;;;;;34.47;20.05;;;12.70;99.90;;;;;;4965288;28;20054;-76
2022/10/30 05:38:01;;;;;;;34.22;19.05;;;12.70;99.90;;;;;;4951302;28;20517;-73
2022/10/30 05:40:27;;;;;;;30.10;18.35;;;12.20;99.90;;;;;;4969285;28;20148;-73
2022/10/30 05:42:52;;;;;;;30.35;18.38;;;12.40;99.90;;;;;;4969242;28;20050;-73
2022/10/30 05:45:19;;;;;;;30.27;19.20;;;12.90;99.90;;;;;;4940003;28;20042;-73
2022/10/30 05:48:03;;;;;;;34.80;18.38;;;13.10;99.90;;;;;;4967302;28;20046;-74
2022/10/30 05:50:30;;;;;;;39.08;19.60;;;12.70;99.90;;;;;;4940625;28;20050;-75
2022/10/30 05:53:02;;;;;;;31.95;18.88;;;12.20;99.90;;;;;;4968246;28;20312;-73
2022/10/30 05:55:28;;;;;;;36.40;19.35;;;12.40;99.90;;;;;;4967293;28;20059;-72
2022/10/30 05:58:06;;;;;;;31.30;20.48;;;12.60;99.90;;;;;;4969675;28;20566;-73
2022/10/30 06:00:34;;;;;;;32.20;18.70;;;12.90;99.90;;;;;;4968560;28;20057;-74
2022/10/30 06:03:02;;;;;;;33.50;18.90;;;12.80;99.90;;;;;;4951164;28;20034;-72
2022/10/30 06:05:30;;;;;;;34.15;18.98;;;12.90;99.90;;;;;;4969287;28;20615;-72
2022/10/30 06:07:56;;;;;;;32.97;19.23;;;12.60;99.90;;;;;;4968015;28;20879;-74
2022/10/30 06:10:23;;;;;;;36.85;19.85;;;12.20;99.90;;;;;;4966547;28;20058;-73
2022/10/30 06:12:56;;;;;;;30.27;18.80;;;12.10;99.90;;;;;;4967016;28;20083;-74
2022/10/30 06:15:22;;;;;;;33.50;19.38;;;12.50;99.90;;;;;;4968334;28;20059;-74
2022/10/30 06:17:49;;;;;;;31.42;19.30;;;12.00;99.90;;;;;;4966741;28;20533;-74
2022/10/30 06:20:16;;;;;;;34.63;19.70;;;12.80;99.90;;;;;;4967229;28;20041;-75
2022/10/30 06:22:41;;;;;;;38.50;19.98;;;12.80;99.90;;;;;;4966675;28;20592;-78
2022/10/30 06:25:07;;;;;;;31.45;20.35;;;12.10;99.90;;;;;;4968102;28;20046;-74
2022/10/30 06:27:34;;;;;;;33.17;19.60;;;12.10;99.90;;;;;;4969594;28;20061;-74
2022/10/30 06:29:59;;;;;;;31.92;19.75;;;12.30;99.90;;;;;;4968176;28;20498;-72
2022/10/30 06:32:25;;;;;;;34.95;19.98;;;12.20;99.90;;;;;;4967756;28;20142;-73
2022/10/30 06:34:51;;;;;;;34.50;19.42;;;12.10;99.90;;;;;;4966670;28;20042;-74
2022/10/30 06:37:16;;;;;;;33.42;20.33;;;12.80;99.90;;;;;;4965611;28;20058;-73
2022/10/30 06:39:42;;;;;;;32.33;20.75;;;12.10;99.90;;;;;;4967028;28;20060;-73
2022/10/30 06:42:08;;;;;;;35.03;18.83;;;12.00;99.90;;;;;;4979091;28;20053;-73
2022/10/30 06:44:34;;;;;;;31.63;20.27;;;12.50;99.90;;;;;;4977555;28;20561;-76
2022/10/30 06:46:59;;;;;;;31.50;20.27;;;12.00;99.90;;;;;;4966142;28;20049;-75
2022/10/30 06:49:25;;;;;;;29.23;19.63;;;12.10;99.90;;;;;;4968378;28;20388;-73
2022/10/30 06:51:51;;;;;;;34.05;19.92;;;12.70;99.90;;;;;;4966727;28;20054;-74
2022/10/30 06:54:16;;;;;;;32.75;19.58;;;12.70;99.90;;;;;;4966807;28;20137;-74
2022/10/30 06:56:42;;;;;;;33.75;19.83;;;12.90;99.90;;;;;;4968161;28;20723;-73
2022/10/30 06:59:09;;;;;;;31.75;19.05;;;12.80;99.90;;;;;;4968789;28;20567;-77
2022/10/30 07:01:35;;;;;;;27.77;18.63;;;13.10;99.90;;;;;;4966411;28;20413;-73
2022/10/30 07:04:01;;;;;;;30.83;19.38;;;12.30;99.90;;;;;;4967753;28;20057;-74
2022/10/30 07:06:26;;;;;;;28.20;18.95;;;13.10;99.90;;;;;;4965926;28;20046;-74
2022/10/30 07:08:52;;;;;;;28.98;20.70;;;13.00;99.90;;;;;;4950275;28;20442;-73
2022/10/30 07:11:18;;;;;;;35.78;21.35;;;13.10;99.90;;;;;;4965320;28;20065;-72
2022/10/30 07:13:44;;;;;;;33.08;20.27;;;12.60;99.90;;;;;;4968269;28;20050;-75
2022/10/30 07:16:10;;;;;;;32.58;19.77;;;13.20;99.90;;;;;;4967267;28;20042;-74
2022/10/30 07:18:36;;;;;;;33.97;20.67;;;13.10;99.90;;;;;;4967884;28;20113;-73
2022/10/30 07:21:02;;;;;;;32.42;19.67;;;13.00;99.90;;;;;;4966037;28;20324;-75
2022/10/30 07:23:27;;;;;;;28.40;19.25;;;13.20;99.90;;;;;;4965700;28;20053;-74
2022/10/30 07:25:53;;;;;;;29.02;19.35;;;13.10;99.90;;;;;;4966830;28;20656;-74
2022/10/30 07:28:18;;;;;;;32.28;20.00;;;12.60;99.90;;;;;;4967000;28;20042;-74
2022/10/30 07:30:44;;;;;;;29.40;17.50;;;12.70;99.90;;;;;;4966259;28;20477;-73
2022/10/30 07:33:10;;;;;;;27.95;17.88;;;13.20;99.90;;;;;;4938944;28;20131;-73
2022/10/30 07:35:36;;;;;;;27.95;18.13;;;13.10;99.90;;;;;;4965801;28;20081;-74
2022/10/30 07:38:03;;;;;;;32.42;18.92;;;13.40;99.90;;;;;;4966147;28;20050;-74
2022/10/30 07:40:29;;;;;;;35.65;19.30;;;13.60;99.90;;;;;;4966593;28;20144;-73
2022/10/30 07:43:00;;;;;;;30.17;17.65;;;13.50;99.90;;;;;;4964928;28;20415;-73
2022/10/30 07:45:26;;;;;;;33.17;18.95;;;13.40;99.90;;;;;;4966316;28;20113;-73
2022/10/30 07:47:52;;;;;;;29.65;18.40;;;13.50;99.90;;;;;;4966420;28;20038;-74
2022/10/30 07:50:18;;;;;;;27.50;17.67;;;13.30;99.90;;;;;;4965053;28;20038;-72
2022/10/30 07:52:43;;;;;;;28.27;17.92;;;13.50;99.90;;;;;;4966863;28;20799;-75
2022/10/30 07:55:09;;;;;;;25.35;17.30;;;13.10;99.90;;;;;;4967313;28;20931;-74
2022/10/30 07:57:36;;;;;;;25.38;16.95;;;14.00;99.90;;;;;;4968633;28;20481;-73
2022/10/30 08:00:08;;;;;;;30.75;16.90;;;13.30;99.90;;;;;;4966356;28;20108;-74
2022/10/30 08:02:34;;;;;;;27.67;16.48;;;14.10;99.90;;;;;;4969506;28;20100;-72
2022/10/30 08:05:00;;;;;;;28.02;16.73;;;13.60;99.90;;;;;;4967801;28;20054;-74
2022/10/30 08:07:30;;;;;;;26.35;16.10;;;14.30;99.90;;;;;;4971321;28;20058;-72
2022/10/30 08:09:56;;;;;;;28.90;17.10;;;14.10;99.90;;;;;;4969546;28;20673;-73
2022/10/30 08:12:22;;;;;;;26.33;16.63;;;14.30;99.90;;;;;;4970565;28;20125;-72
2022/10/30 08:14:51;;;;;;;28.85;16.35;;;14.60;99.90;;;;;;4968908;28;20650;-75
2022/10/30 08:17:17;;;;;;;23.60;15.00;;;14.10;99.90;;;;;;4954549;28;20147;-73
2022/10/30 08:19:43;;;;;;;28.10;15.23;;;14.80;99.90;;;;;;4973789;28;20136;-73
2022/10/30 08:22:10;;;;;;;27.95;16.08;;;15.20;99.90;;;;;;4971332;28;20188;-73
2022/10/30 08:24:35;;;;;;;23.27;14.40;;;14.60;99.90;;;;;;4956250;28;20143;-72
2022/10/30 08:27:02;;;;;;;22.50;13.25;;;15.10;99.90;;;;;;4972763;28;20065;-74
2022/10/30 08:29:28;;;;;;;18.65;12.80;;;15.70;99.90;;;;;;4939816;28;20058;-73
2022/10/30 08:31:54;;;;;;;21.70;12.73;;;16.20;99.90;;;;;;4954452;28;20066;-73
2022/10/30 08:34:19;;;;;;;22.58;12.05;;;16.80;99.90;;;;;;4971498;28;20050;-73
2022/10/30 08:36:49;;;;;;;22.60;11.50;;;17.10;99.90;;;;;;4969907;28;20456;-73
2022/10/30 08:39:16;;;;;;;19.83;11.18;;;17.50;99.90;;;;;;4969859;28;20054;-75
2022/10/30 08:41:44;;;;;;;23.65;11.30;;;17.10;99.90;;;;;;4968222;28;20141;-75
2022/10/30 08:44:10;;;;;;;22.23;11.23;;;18.10;99.90;;;;;;4967418;28;20046;-74
2022/10/30 08:46:36;;;;;;;19.75;10.98;;;18.30;99.90;;;;;;4968767;28;20422;-74
2022/10/30 08:49:01;;;;;;;19.88;10.55;;;18.00;99.90;;;;;;4968176;28;20054;-73
2022/10/30 08:51:30;;;;;;;17.50;10.57;;;18.40;99.90;;;;;;4968924;28;20153;-72
2022/10/30 08:53:56;;;;;;;18.65;9.60;;;18.80;99.90;;;;;;4969364;28;20050;-74
2022/10/30 08:56:21;;;;;;;21.60;11.00;;;19.00;99.90;;;;;;4966588;28;20522;-73
2022/10/30 08:58:48;;;;;;;17.23;9.48;;;19.50;99.90;;;;;;4938935;28;20054;-74
2022/10/30 09:01:14;;;;;;;19.10;10.43;;;19.60;99.90;;;;;;4965646;28;20057;-75
2022/10/30 09:03:41;;;;;;;19.23;10.10;;;19.40;99.90;;;;;;4967318;28;20042;-73
2022/10/30 09:06:07;;;;;;;22.27;9.38;;;19.50;99.90;;;;;;4968470;28;20116;-74
2022/10/30 09:08:33;;;;;;;16.77;9.05;;;19.60;99.90;;;;;;4967139;28;20054;-74
2022/10/30 09:10:59;;;;;;;22.67;9.82;;;19.90;99.90;;;;;;4953412;28;20046;-73
2022/10/30 09:13:25;;;;;;;16.42;9.50;;;19.90;99.90;;;;;;4974362;28;20612;-77
2022/10/30 09:15:50;;;;;;;19.10;9.63;;;20.00;99.90;;;;;;4974386;28;20872;-73
2022/10/30 09:18:16;;;;;;;16.90;8.93;;;20.20;99.90;;;;;;4972085;28;20042;-73
2022/10/30 09:20:42;;;;;;;18.70;9.05;;;20.50;99.90;;;;;;4971155;28;20054;-76
2022/10/30 09:23:08;;;;;;;16.75;9.68;;;20.60;99.90;;;;;;4953632;28;20518;-73
2022/10/30 09:25:33;;;;;;;18.25;9.40;;;20.90;99.90;;;;;;4969252;28;20401;-75
2022/10/30 09:27:59;;;;;;;20.15;9.23;;;21.00;99.90;;;;;;4970292;28;20046;-75
2022/10/30 09:30:25;;;;;;;16.65;8.10;;;21.00;99.90;;;;;;4969238;28;20050;-74
2022/10/30 09:32:59;;;;;;;15.85;8.85;;;20.90;99.90;;;;;;4971006;28;20046;-76
2022/10/30 09:35:25;;;;;;;19.63;8.52;;;20.90;99.90;;;;;;4971716;28;20049;-73
2022/10/30 09:37:50;;;;;;;14.45;8.70;;;21.20;99.90;;;;;;4970387;28;20062;-72
2022/10/30 09:40:25;;;;;;;19.42;8.30;;;21.30;99.90;;;;;;4969616;28;20073;-78
2022/10/30 09:42:51;;;;;;;13.38;7.85;;;21.30;99.90;;;;;;4971634;28;20547;-75
2022/10/30 09:45:43;;;;;;;15.32;7.78;;;21.40;99.90;;;;;;4969215;28;20051;-74
2022/10/30 09:48:21;;;;;;;18.07;8.10;;;21.00;99.90;;;;;;4968390;28;20054;-74
2022/10/30 09:51:18;;;;;;;18.17;8.25;;;21.20;99.90;;;;;;4969517;28;20065;-75
2022/10/30 09:54:08;;;;;;;16.42;7.18;;;21.30;99.90;;;;;;4968688;28;20636;-75
2022/10/30 09:56:42;;;;;;;14.32;7.30;;;21.30;99.90;;;;;;4970193;28;20049;-74
2022/10/30 09:59:32;;;;;;;13.35;6.95;;;21.50;99.90;;;;;;4968896;28;20426;-78
2022/10/30 10:02:21;;;;;;;12.85;7.20;;;21.50;99.90;;;;;;4968986;28;20070;-74
2022/10/30 10:05:02;;;;;;;12.52;6.90;;;21.70;99.90;;;;;;4957446;28;20504;-75
2022/10/30 10:07:57;;;;;;;17.92;8.02;;;22.20;99.90;;;;;;4969201;28;20059;-75
2022/10/30 10:10:41;;;;;;;18.55;7.03;;;22.60;99.90;;;;;;4966381;28;20061;-75
2022/10/30 10:13:26;;;;;;;16.63;7.32;;;22.90;99.90;;;;;;4953228;28;20050;-74
2022/10/30 10:16:01;;;;;;;16.33;7.07;;;22.90;99.90;;;;;;4969483;28;20646;-74
2022/10/30 10:18:36;;;;;;;13.98;6.35;;;22.80;99.90;;;;;;4969478;28;20070;-74
2022/10/30 10:21:12;;;;;;;14.70;6.80;;;22.80;99.90;;;;;;4969253;28;20490;-73
2022/10/30 10:23:47;;;;;;;14.82;6.00;;;23.20;99.90;;;;;;4966273;28;20712;-75
2022/10/30 10:26:27;;;;;;;13.93;6.90;;;23.70;99.90;;;;;;4966719;28;21479;-73
2022/10/30 10:28:59;;;;;;;13.63;6.30;;;23.60;99.90;;;;;;4953023;28;20507;-75
2022/10/30 10:31:44;;;;;;;15.15;6.30;;;23.10;99.90;;;;;;4968508;28;20042;-70
2022/10/30 10:34:15;;;;;;;13.07;6.07;;;23.00;99.90;;;;;;4968232;28;20046;-74
2022/10/30 10:37:12;;;;;;;16.58;6.63;;;22.60;99.90;;;;;;4970355;28;20042;-71
2022/10/30 10:39:57;;;;;;;15.13;6.55;;;22.40;99.90;;;;;;4968213;28;20046;-72
2022/10/30 10:42:58;;;;;;;15.85;6.07;;;22.10;99.90;;;;;;4968852;28;20058;-73
2022/10/30 10:45:44;;;;;;;15.15;6.82;;;22.00;99.90;;;;;;4968935;28;20058;-72
2022/10/30 10:48:19;;;;;;;13.77;6.30;;;22.50;99.90;;;;;;4969859;28;20042;-74
2022/10/30 10:51:05;;;;;;;11.82;6.32;;;22.30;99.90;;;;;;4971347;28;20137;-73
2022/10/30 10:53:45;;;;;;;16.80;6.43;;;22.80;99.90;;;;;;4970675;28;20050;-76
2022/10/30 10:56:12;;;;;;;11.73;6.22;;;23.20;99.90;;;;;;4967180;28;20047;-73
2022/10/30 10:59:03;;;;;;;14.80;6.20;;;23.80;99.90;;;;;;4967897;28;20570;-73
2022/10/30 11:01:37;;;;;;;12.38;5.10;;;24.30;99.90;;;;;;4967560;28;20128;-74
2022/10/30 11:04:11;;;;;;;14.48;5.97;;;24.50;99.90;;;;;;4967145;28;20050;-74
2022/10/30 11:06:40;;;;;;;14.18;6.53;;;24.60;99.90;;;;;;4967118;28;20074;-74
2022/10/30 11:09:15;;;;;;;15.32;7.30;;;24.60;99.90;;;;;;4967168;28;20050;-76
2022/10/30 11:11:42;;;;;;;17.58;8.50;;;23.80;99.90;;;;;;4967662;28;20100;-74
2022/10/30 11:14:28;;;;;;;15.18;8.15;;;24.30;99.90;;;;;;4966765;28;20639;-74
2022/10/30 11:17:16;;;;;;;19.42;9.60;;;24.70;99.90;;;;;;4967232;28;20078;-73
2022/10/30 11:19:41;;;;;;;15.77;9.38;;;24.80;99.90;;;;;;4969784;28;20093;-74
2022/10/30 11:22:43;;;;;;;16.83;7.88;;;24.50;99.90;;;;;;4969352;28;20058;-73
2022/10/30 11:25:23;;;;;;;13.80;7.93;;;24.50;99.90;;;;;;4969547;28;20674;-75
2022/10/30 11:27:54;;;;;;;20.08;9.55;;;24.40;99.90;;;;;;4968736;28;20073;-74
2022/10/30 11:30:23;;;;;;;19.60;9.18;;;24.90;99.90;;;;;;4969144;28;20644;-74
2022/10/30 11:32:49;;;;;;;16.33;8.75;;;25.50;99.90;;;;;;4969371;28;20042;-75
2022/10/30 11:35:17;;;;;;;15.10;8.82;;;25.70;99.90;;;;;;4968623;28;20684;-74
2022/10/30 11:37:45;;;;;;;18.85;9.77;;;25.70;99.90;;;;;;4969493;28;20119;-74
2022/10/30 11:40:11;;;;;;;17.08;10.48;;;25.90;99.90;;;;;;4969938;28;20134;-75
2022/10/30 11:42:40;;;;;;;22.02;16.05;;;26.00;99.90;;;;;;4970734;28;20049;-75
2022/10/30 11:45:15;;;;;;;18.13;9.77;;;25.90;99.90;;;;;;4968323;28;20070;-74
2022/10/30 11:47:41;;;;;;;18.85;9.48;;;26.00;99.90;;;;;;4969307;28;20178;-77
2022/10/30 11:50:19;;;;;;;16.50;8.77;;;25.70;99.90;;;;;;4969814;28;20440;-78
2022/10/30 11:52:48;;;;;;;14.57;7.72;;;25.50;99.90;;;;;;4968247;28;20085;-76
2022/10/30 11:55:19;;;;;;;18.08;8.10;;;25.40;99.90;;;;;;4967547;28;20062;-75
2022/10/30 11:57:54;;;;;;;17.02;8.38;;;25.50;99.90;;;;;;4966059;28;20580;-76
2022/10/30 12:00:26;;;;;;;11.52;7.60;;;25.60;99.90;;;;;;4966882;28;20983;-74
2022/10/30 12:02:54;;;;;;;13.90;7.32;;;25.80;99.90;;;;;;4965234;28;20089;-74
2022/10/30 12:05:26;;;;;;;15.25;7.82;;;25.40;99.90;;;;;;4968216;28;20050;-72
2022/10/30 12:08:16;;;;;;;11.95;7.50;;;25.20;99.90;;;;;;4967118;28;20042;-73
2022/10/30 12:11:04;;;;;;;18.60;9.52;;;24.80;99.90;;;;;;4964921;28;20058;-74
2022/10/30 12:13:36;;;;;;;17.00;10.25;;;24.50;99.90;;;;;;4967526;28;20137;-73
2022/10/30 12:16:14;;;;;;;19.77;11.68;;;23.70;99.90;;;;;;4968623;28;20050;-74
2022/10/30 12:18:40;;;;;;;23.92;12.88;;;22.50;99.90;;;;;;4966067;28;20058;-75
2022/10/30 12:21:06;;;;;;;20.67;12.48;;;21.40;99.90;;;;;;4965038;28;20152;-74
2022/10/30 12:23:32;;;;;;;23.38;13.82;;;21.10;99.90;;;;;;4966846;28;20638;-74
2022/10/30 12:26:06;;;;;;;23.52;12.73;;;20.90;99.90;;;;;;4965166;28;20592;-73
2022/10/30 12:28:33;;;;;;;20.35;13.10;;;20.70;99.90;;;;;;4967828;28;20132;-73
2022/10/30 12:31:12;;;;;;;17.83;12.60;;;20.60;99.90;;;;;;4950189;28;20053;-74
2022/10/30 12:33:43;;;;;;;18.77;12.10;;;20.60;99.90;;;;;;4967794;28;20046;-73
2022/10/30 12:36:26;;;;;;;21.67;14.10;;;20.90;99.90;;;;;;4966322;28;20042;-73
2022/10/30 12:39:30;;;;;;;21.90;13.55;;;20.70;99.90;;;;;;4961900;28;20046;-75
2022/10/30 12:42:05;;;;;;;20.90;12.95;;;20.60;99.90;;;;;;4980300;28;20136;-74
2022/10/30 12:45:00;;;;;;;26.23;14.90;;;20.70;99.90;;;;;;4966894;28;20061;-78